Aviation Digital Data Service (ADDS)

Output produced by TAFs form (1852 UTC 24 June 2017)
found at http://aviationweather.gov/adds/tafs/
 
KDRO 241739Z 2418/2518 27015G25KT P6SM FEW250 
     FM250200 32008KT P6SM SKC 
     FM250500 VRB03KT P6SM SKC 
     FM251500 11007KT P6SM FEW200